Time;durP1;ratioP1;P1;durP2;ratioP2;P2;SDS_P1;SDS_P2;PMS_P1;PMS_P2;Temp;Humidity;BMP_temperature;BMP_pressure;BME280_temperature;BME280_humidity;BME280_pressure;Samples;Min_cycle;Max_cycle;Signal;HPM_P1;HPM_P2
2022/08/22 00:00:53;;;;;;;11.25;4.25;;;;;;;16.53;79.37;101551.28;5108259;27;20039;-58
2022/08/22 00:03:37;;;;;;;11.25;4.22;;;;;;;16.61;78.94;101544.16;5096860;28;20028;-57
2022/08/22 00:06:16;;;;;;;8.60;3.92;;;;;;;16.54;79.30;101544.91;5103438;28;20033;-59
2022/08/22 00:09:15;;;;;;;12.00;4.50;;;;;;;16.53;79.74;101553.16;5110807;27;20027;-57
2022/08/22 00:12:26;;;;;;;12.20;4.80;;;;;;;16.48;80.05;101545.66;5097007;28;20051;-57
2022/08/22 00:15:18;;;;;;;10.57;4.85;;;;;;;16.58;79.57;101542.69;5100446;28;20071;-57
2022/08/22 00:18:02;;;;;;;10.52;4.30;;;;;;;16.52;80.04;101549.63;5100522;28;20035;-60
2022/08/22 00:20:59;;;;;;;11.82;4.15;;;;;;;16.49;80.44;101551.84;5100104;28;20039;-57
2022/08/22 00:23:31;;;;;;;7.07;4.25;;;;;;;16.48;80.34;101551.00;5102908;28;20067;-58
2022/08/22 00:26:09;;;;;;;13.15;4.15;;;;;;;16.50;80.87;101543.63;5096496;28;20074;-58
2022/08/22 00:28:40;;;;;;;9.55;4.05;;;;;;;16.51;80.64;101545.28;5092873;28;20119;-57
2022/08/22 00:31:24;;;;;;;10.75;4.47;;;;;;;16.46;80.55;101552.19;5100902;28;20085;-60
2022/08/22 00:33:52;;;;;;;9.68;4.20;;;;;;;16.25;80.96;101543.84;5100629;28;20519;-56
2022/08/22 00:36:29;;;;;;;8.50;4.28;;;;;;;16.41;80.64;101547.41;5101083;28;20482;-59
2022/08/22 00:39:12;;;;;;;10.48;4.70;;;;;;;16.47;80.90;101546.66;5101691;28;20032;-58
2022/08/22 00:42:00;;;;;;;7.35;4.05;;;;;;;16.57;80.51;101542.91;5100908;28;21691;-59
2022/08/22 00:44:38;;;;;;;12.65;4.15;;;;;;;16.55;80.44;101540.41;5094062;28;20032;-61
2022/08/22 00:47:18;;;;;;;9.63;4.15;;;;;;;16.51;80.54;101545.28;5097614;28;20051;-59
2022/08/22 00:50:03;;;;;;;12.95;4.10;;;;;;;16.44;80.04;101544.38;5099920;28;20035;-58
2022/08/22 00:52:50;;;;;;;10.13;4.50;;;;;;;16.40;80.22;101543.06;5096813;28;20031;-57
2022/08/22 00:55:19;;;;;;;11.35;4.40;;;;;;;16.38;80.25;101550.47;5102397;28;20039;-58
2022/08/22 00:58:17;;;;;;;11.40;4.88;;;;;;;16.43;79.83;101553.38;5102028;28;20384;-58
2022/08/22 01:00:58;;;;;;;12.48;5.15;;;;;;;16.16;80.85;101553.00;5096786;28;20043;-59
2022/08/22 01:03:45;;;;;;;13.40;5.50;;;;;;;16.28;80.39;101545.34;5100212;28;20055;-60
2022/08/22 01:06:31;;;;;;;11.23;5.03;;;;;;;16.27;80.62;101555.22;5103249;28;20028;-59
2022/08/22 01:09:03;;;;;;;7.35;4.78;;;;;;;16.13;81.59;101537.28;5102342;28;20047;-58
2022/08/22 01:11:56;;;;;;;8.13;4.63;;;;;;;16.29;81.22;101540.81;5102641;28;20160;-58
2022/08/22 01:14:33;;;;;;;8.50;4.68;;;;;;;16.14;82.22;101538.97;5099262;28;20036;-57
2022/08/22 01:17:01;;;;;;;10.52;4.45;;;;;;;16.21;82.16;101539.91;5093274;28;20049;-60
2022/08/22 01:19:56;;;;;;;11.23;4.78;;;;;;;16.34;81.79;101538.44;5105099;28;20050;-58
2022/08/22 01:22:59;;;;;;;10.32;5.43;;;;;;;16.38;80.97;101539.75;5092338;28;20036;-57
2022/08/22 01:25:49;;;;;;;14.68;5.95;;;;;;;16.35;81.08;101537.41;5097977;28;20043;-57
2022/08/22 01:28:42;;;;;;;11.90;6.57;;;;;;;16.40;81.16;101545.75;5099106;28;20068;-60
2022/08/22 01:31:27;;;;;;;13.98;7.07;;;;;;;16.47;80.37;101543.97;5091603;28;20903;-58
2022/08/22 01:34:11;;;;;;;13.07;6.55;;;;;;;16.56;79.91;101539.38;5101087;28;20494;-57
2022/08/22 01:37:11;;;;;;;11.90;6.85;;;;;;;16.61;79.76;101544.16;5103848;28;20039;-59
2022/08/22 01:39:50;;;;;;;11.00;6.90;;;;;;;16.61;79.79;101539.66;5043223;28;20049;-58
2022/08/22 01:42:46;;;;;;;14.60;7.45;;;;;;;16.68;79.63;101545.94;5100400;28;20464;-58
2022/08/22 01:45:39;;;;;;;13.50;7.47;;;;;;;16.64;79.57;101539.28;5094686;28;20093;-59
2022/08/22 01:48:10;;;;;;;;;;;;;;;16.83;78.51;101537.06;5105388;27;20159;-58
2022/08/22 01:50:48;;;;;;;17.27;7.70;;;;;;;16.67;78.89;101538.06;5105801;28;19926;-57
2022/08/22 01:53:24;;;;;;;16.92;8.10;;;;;;;16.65;78.92;101535.59;5103197;28;20031;-60
2022/08/22 01:56:08;;;;;;;14.13;7.75;;;;;;;16.71;79.29;101538.53;5106505;28;20488;-57
2022/08/22 01:58:41;;;;;;;15.20;8.20;;;;;;;16.63;79.21;101534.94;5101143;28;20032;-59
2022/08/22 02:01:09;;;;;;;15.45;8.07;;;;;;;16.61;79.57;101536.97;5102271;28;20034;-58
2022/08/22 02:03:34;;;;;;;15.43;8.80;;;;;;;16.64;79.95;101533.91;5097759;28;20492;-59
2022/08/22 02:06:32;;;;;;;13.98;8.70;;;;;;;16.70;79.36;101532.38;5106068;28;20030;-58
2022/08/22 02:09:19;;;;;;;14.82;8.63;;;;;;;16.62;79.37;101535.97;5070256;27;20052;-59
2022/08/22 02:11:53;;;;;;;17.15;8.75;;;;;;;16.59;79.93;101540.84;5103915;28;20405;-57
2022/08/22 02:14:31;;;;;;;16.67;8.18;;;;;;;16.58;79.62;101539.19;5100019;28;20084;-57
2022/08/22 02:17:28;;;;;;;19.55;8.38;;;;;;;16.52;79.62;101536.25;5102011;28;20577;-58
2022/08/22 02:20:06;;;;;;;17.00;8.15;;;;;;;16.47;80.21;101535.97;5108089;27;20536;-60
2022/08/22 02:22:52;;;;;;;17.77;8.52;;;;;;;16.51;80.08;101531.06;5102961;28;20039;-58
2022/08/22 02:25:29;;;;;;;13.07;8.27;;;;;;;16.51;80.19;101529.22;5095925;28;20023;-59
2022/08/22 02:28:17;;;;;;;16.38;8.10;;;;;;;16.55;79.89;101529.69;5098677;27;20107;-60
2022/08/22 02:30:55;;;;;;;14.45;8.30;;;;;;;16.59;80.01;101530.16;5084787;28;20113;-58
2022/08/22 02:33:31;;;;;;;18.38;8.50;;;;;;;16.50;80.33;101527.56;5105308;28;20092;-58
2022/08/22 02:36:06;;;;;;;15.10;8.45;;;;;;;16.51;80.54;101526.56;5092927;28;20042;-60
2022/08/22 02:38:50;;;;;;;14.98;8.23;;;;;;;16.46;80.51;101526.28;5099976;27;20027;-57
2022/08/22 02:41:33;;;;;;;14.30;8.02;;;;;;;16.51;80.34;101523.88;5100289;28;20046;-58
2022/08/22 02:44:16;;;;;;;15.35;8.40;;;;;;;16.51;80.34;101523.03;5103329;28;20035;-56
2022/08/22 02:47:05;;;;;;;;;;;;;;;16.66;78.80;101529.22;5101325;28;20044;-58
2022/08/22 02:50:29;;;;;;;15.25;9.05;;;;;;;16.59;79.34;101522.13;5073898;28;20482;-56
2022/08/22 02:53:01;;;;;;;19.17;9.82;;;;;;;16.45;79.48;101524.59;5018159;28;20796;-57
2022/08/22 02:55:44;;;;;;;13.17;8.90;;;;;;;16.43;81.42;101531.97;5021201;28;20083;-59
2022/08/22 02:58:17;;;;;;;17.27;9.07;;;;;;;16.38;81.58;101521.00;5074229;27;20307;-58
2022/08/22 03:00:48;;;;;;;16.80;9.60;;;;;;;16.30;80.69;101526.44;5100748;28;20039;-58
2022/08/22 03:03:20;;;;;;;17.55;9.55;;;;;;;16.34;80.94;101517.03;5098239;28;20019;-58
2022/08/22 03:05:57;;;;;;;18.80;9.60;;;;;;;16.42;80.77;101514.25;5104634;28;20081;-58
2022/08/22 03:08:34;;;;;;;15.68;8.52;;;;;;;16.38;81.50;101523.69;5104426;27;20054;-59
2022/08/22 03:11:20;;;;;;;14.05;8.95;;;;;;;16.43;81.31;101531.16;5098046;28;20059;-58
2022/08/22 03:13:48;;;;;;;15.57;9.63;;;;;;;16.43;81.69;101529.28;5101990;28;20039;-60
2022/08/22 03:16:28;;;;;;;15.80;9.70;;;;;;;16.34;81.43;101523.19;5105355;28;20123;-58
2022/08/22 03:19:15;;;;;;;17.40;10.23;;;;;;;16.14;82.69;101523.72;5106546;27;20067;-58
2022/08/22 03:21:51;;;;;;;16.02;9.45;;;;;;;16.24;82.28;101520.78;5101178;28;20313;-59
2022/08/22 03:24:24;;;;;;;15.63;9.48;;;;;;;16.14;82.58;101506.88;5103820;28;20032;-57
2022/08/22 03:27:00;;;;;;;18.65;9.82;;;;;;;16.18;82.21;101508.13;5104528;28;20468;-58
2022/08/22 03:29:37;;;;;;;16.05;9.65;;;;;;;16.22;81.65;101493.41;5103445;27;20046;-59
2022/08/22 03:32:15;;;;;;;17.10;9.65;;;;;;;16.22;81.97;101498.75;5099132;28;20031;-57
2022/08/22 03:35:07;;;;;;;13.27;9.15;;;;;;;16.25;82.25;101509.06;5092209;28;20377;-58
2022/08/22 03:37:38;;;;;;;14.55;9.57;;;;;;;16.18;82.51;101502.78;5102164;28;20031;-59
2022/08/22 03:40:36;;;;;;;14.88;9.43;;;;;;;16.21;81.87;101497.09;5108162;27;20031;-57
2022/08/22 03:43:14;;;;;;;15.88;9.15;;;;;;;16.12;82.12;101498.16;5091878;28;20492;-59
2022/08/22 03:46:04;;;;;;;14.55;9.45;;;;;;;16.09;82.65;101493.19;5100761;28;20032;-59
2022/08/22 03:48:41;;;;;;;17.25;9.50;;;;;;;15.98;82.83;101497.13;5096840;27;20027;-60
2022/08/22 03:51:27;;;;;;;15.32;9.65;;;;;;;16.00;82.68;101484.41;5104086;28;20036;-57
2022/08/22 03:54:18;;;;;;;16.92;9.13;;;;;;;16.00;82.76;101490.59;5076360;28;20073;-58
2022/08/22 03:57:21;;;;;;;17.42;10.10;;;;;;;15.90;83.31;101487.31;5103680;28;20044;-57
2022/08/22 03:59:58;;;;;;;17.42;9.43;;;;;;;15.85;82.83;101484.34;5098765;28;20035;-62
2022/08/22 04:02:50;;;;;;;17.70;9.23;;;;;;;15.87;83.13;101490.34;5097698;28;20042;-59
2022/08/22 04:05:25;;;;;;;18.63;9.73;;;;;;;15.82;83.14;101487.38;5104619;28;20159;-57
2022/08/22 04:08:03;;;;;;;14.90;9.05;;;;;;;15.85;83.21;101484.34;5091212;27;20051;-58
2022/08/22 04:11:01;;;;;;;13.07;9.20;;;;;;;15.89;82.72;101488.31;5092200;28;20039;-58
2022/08/22 04:14:05;;;;;;;15.55;9.13;;;;;;;15.83;83.03;101489.03;5061369;28;20078;-58
2022/08/22 04:17:07;;;;;;;14.82;9.48;;;;;;;15.82;83.21;101492.72;5089622;28;20054;-58
2022/08/22 04:20:12;;;;;;;17.83;9.93;;;;;;;15.78;83.21;101497.59;5108860;27;20039;-57
2022/08/22 04:22:48;;;;;;;17.23;9.43;;;;;;;15.84;83.68;101501.41;5096386;28;20028;-59
2022/08/22 04:25:19;;;;;;;15.10;10.10;;;;;;;15.67;83.97;101496.19;5099432;28;20415;-56
2022/08/22 04:28:02;;;;;;;15.25;9.98;;;;;;;15.79;84.34;101507.28;5100829;28;20040;-57
2022/08/22 04:30:36;;;;;;;17.65;9.80;;;;;;;15.81;84.85;101509.78;5101729;28;20524;-57
2022/08/22 04:33:24;;;;;;;14.32;9.45;;;;;;;15.85;83.75;101508.44;5087111;28;20454;-58
2022/08/22 04:36:14;;;;;;;17.23;9.73;;;;;;;15.81;84.85;101505.28;5092920;28;20089;-60
2022/08/22 04:39:04;;;;;;;15.45;9.55;;;;;;;15.71;85.50;101494.00;5098012;28;20027;-58
2022/08/22 04:41:51;;;;;;;16.65;10.15;;;;;;;15.68;85.44;101502.34;5099509;28;20052;-57
2022/08/22 04:44:34;;;;;;;16.08;9.45;;;;;;;15.78;85.49;101497.59;5099497;28;20023;-57
2022/08/22 04:47:08;;;;;;;;;;;;;;;15.96;83.32;101509.84;5096809;28;20057;-58
2022/08/22 04:49:42;;;;;;;;;;;;;;;15.98;82.88;101502.47;5102394;28;19958;-57
2022/08/22 04:52:44;;;;;;;15.15;9.65;;;;;;;15.85;84.61;101503.06;5094368;28;19926;-58
2022/08/22 04:55:37;;;;;;;19.43;10.03;;;;;;;15.81;85.99;101515.13;5097324;28;20414;-58
2022/08/22 04:58:23;;;;;;;18.92;10.35;;;;;;;15.82;86.16;101519.47;5100479;28;20035;-60
2022/08/22 05:01:10;;;;;;;18.52;10.10;;;;;;;15.82;86.19;101520.31;5111833;28;20046;-59
2022/08/22 05:03:43;;;;;;;18.13;10.82;;;;;;;15.86;86.13;101523.47;5096981;28;20173;-58
2022/08/22 05:06:12;;;;;;;18.88;10.30;;;;;;;15.87;85.66;101517.09;5096791;28;20104;-56
2022/08/22 05:08:39;;;;;;;16.58;10.02;;;;;;;15.85;85.95;101519.13;5100424;28;20057;-57
2022/08/22 05:11:08;;;;;;;14.50;9.70;;;;;;;15.90;85.59;101527.44;5102304;28;20039;-56
2022/08/22 05:13:39;;;;;;;18.13;10.45;;;;;;;15.94;85.56;101525.28;5098884;28;20032;-58
2022/08/22 05:16:13;;;;;;;15.15;10.00;;;;;;;15.98;85.53;101524.72;5085823;28;20454;-58
2022/08/22 05:18:45;;;;;;;15.55;10.13;;;;;;;16.03;85.52;101526.03;5102318;27;20058;-58
2022/08/22 05:21:13;;;;;;;21.45;11.05;;;;;;;15.93;84.64;101521.75;5103420;28;20050;-61
2022/08/22 05:24:01;;;;;;;18.38;10.55;;;;;;;16.02;84.83;101521.69;5104412;28;20349;-58
2022/08/22 05:26:32;;;;;;;19.25;10.52;;;;;;;16.07;85.06;101527.31;5094827;28;20050;-56
2022/08/22 05:29:02;;;;;;;17.55;9.93;;;;;;;16.09;85.14;101526.13;5103680;28;20027;-59
2022/08/22 05:31:33;;;;;;;21.48;11.00;;;;;;;16.10;84.89;101533.13;5098743;28;20043;-58
2022/08/22 05:34:19;;;;;;;20.05;11.13;;;;;;;16.12;84.87;101532.94;5106789;28;20035;-58
2022/08/22 05:36:53;;;;;;;20.95;11.45;;;;;;;16.02;85.30;101535.88;5094789;28;20048;-58
2022/08/22 05:39:23;;;;;;;20.90;11.15;;;;;;;16.05;85.74;101532.03;5098936;27;20457;-58
2022/08/22 05:41:49;;;;;;;17.88;11.23;;;;;;;16.11;85.47;101534.81;5103005;28;20049;-57
2022/08/22 05:44:31;;;;;;;18.35;11.60;;;;;;;16.11;85.10;101528.63;5103325;28;20549;-59
2022/08/22 05:47:01;;;;;;;19.08;10.57;;;;;;;16.17;85.38;101535.91;5105444;28;20055;-60
2022/08/22 05:49:37;;;;;;;18.80;11.00;;;;;;;16.20;85.38;101540.06;5116075;27;20035;-59
2022/08/22 05:52:31;;;;;;;17.58;11.18;;;;;;;16.24;84.66;101536.84;5099013;28;20481;-58
2022/08/22 05:55:04;;;;;;;19.33;11.27;;;;;;;16.22;84.54;101533.53;5104325;28;20135;-58
2022/08/22 05:57:40;;;;;;;19.95;11.88;;;;;;;16.24;84.32;101531.50;5107241;28;20389;-58
2022/08/22 06:00:10;;;;;;;18.42;11.10;;;;;;;16.16;84.34;101520.88;5106721;27;20027;-57
2022/08/22 06:02:50;;;;;;;21.25;12.27;;;;;;;16.23;84.62;101527.16;5098961;28;20023;-58
2022/08/22 06:05:24;;;;;;;20.75;12.07;;;;;;;16.26;84.59;101532.16;5103870;28;20487;-58
2022/08/22 06:07:52;;;;;;;23.10;12.70;;;;;;;16.24;84.23;101528.81;5087354;28;20031;-58
2022/08/22 06:10:26;;;;;;;20.20;12.02;;;;;;;16.24;85.02;101531.50;5100229;28;20119;-58
2022/08/22 06:13:10;;;;;;;22.33;13.00;;;;;;;16.30;84.76;101532.63;5098083;28;20092;-57
2022/08/22 06:15:58;;;;;;;22.50;12.63;;;;;;;16.40;84.80;101538.53;5102728;28;20112;-57
2022/08/22 06:18:26;;;;;;;20.80;13.55;;;;;;;16.35;84.56;101534.75;5098146;27;20071;-55
2022/08/22 06:21:01;;;;;;;20.35;13.02;;;;;;;16.35;85.05;101538.28;5108693;27;20525;-59
2022/08/22 06:23:34;;;;;;;19.33;13.00;;;;;;;16.33;84.58;101536.78;5105806;28;20039;-58
2022/08/22 06:26:00;;;;;;;21.45;13.40;;;;;;;16.36;84.86;101537.25;5094456;28;20031;-59
2022/08/22 06:28:32;;;;;;;20.30;13.45;;;;;;;16.41;84.56;101539.38;5108390;27;20033;-58
2022/08/22 06:31:00;;;;;;;21.30;13.80;;;;;;;16.44;84.70;101543.53;5092131;28;20035;-61
2022/08/22 06:33:28;;;;;;;21.15;13.05;;;;;;;16.40;85.09;101537.72;5098565;28;20024;-59
2022/08/22 06:38:50;;;;;;;22.33;13.90;;;;;;;16.46;85.06;101546.84;5096829;28;20053;-60
2022/08/22 06:41:16;;;;;;;21.10;14.23;;;;;;;16.41;85.14;101544.72;5105206;28;20038;-58
2022/08/22 06:43:42;;;;;;;22.52;14.57;;;;;;;16.39;85.47;101546.75;5102147;28;20036;-62
2022/08/22 06:46:11;;;;;;;21.35;14.48;;;;;;;16.42;85.86;101546.38;5102202;28;20031;-58
2022/08/22 06:48:37;;;;;;;20.30;13.90;;;;;;;16.41;85.93;101550.06;5099849;27;20059;-62
2022/08/22 06:51:07;;;;;;;23.45;14.38;;;;;;;16.47;86.09;101554.69;5100018;28;20143;-60
2022/08/22 06:53:41;;;;;;;23.40;14.70;;;;;;;16.52;85.66;101552.31;5104590;28;20114;-57
2022/08/22 06:56:08;;;;;;;20.15;14.07;;;;;;;16.57;85.60;101567.81;5098342;28;20023;-58
2022/08/22 06:58:37;;;;;;;22.00;14.07;;;;;;;16.60;85.55;101566.59;5100192;27;20449;-57
2022/08/22 07:01:11;;;;;;;19.45;14.32;;;;;;;16.67;85.19;101570.22;5101024;28;20043;-59
2022/08/22 07:03:57;;;;;;;21.70;13.80;;;;;;;16.76;85.12;101569.13;5104096;28;20518;-59
2022/08/22 07:06:34;;;;;;;22.80;14.63;;;;;;;16.82;85.06;101567.53;5102366;28;20028;-58
2022/08/22 07:09:00;;;;;;;23.05;15.35;;;;;;;16.88;87.02;101569.47;5114377;27;20046;-57
2022/08/22 07:11:31;;;;;;;20.52;14.70;;;;;;;16.93;86.29;101574.28;5096608;28;20048;-60
2022/08/22 07:14:04;;;;;;;24.13;16.17;;;;;;;16.98;85.75;101563.84;5091783;28;20684;-61
2022/08/22 07:16:32;;;;;;;22.38;16.20;;;;;;;16.95;86.03;101566.88;5104600;28;20873;-61
2022/08/22 07:18:58;;;;;;;25.58;16.80;;;;;;;17.01;86.88;101576.00;5091393;28;20047;-59
2022/08/22 07:21:28;;;;;;;23.65;16.42;;;;;;;17.04;86.57;101571.16;5105902;28;20058;-59
2022/08/22 07:23:54;;;;;;;24.27;16.58;;;;;;;17.07;86.39;101569.94;5103966;28;20388;-60
2022/08/22 07:26:29;;;;;;;23.52;16.25;;;;;;;17.14;86.05;101562.84;5091956;28;20540;-61
2022/08/22 07:29:21;;;;;;;23.95;16.00;;;;;;;17.22;85.85;101567.22;5103810;27;20031;-60
2022/08/22 07:31:56;;;;;;;21.65;16.42;;;;;;;17.31;85.05;101560.75;5098462;28;20024;-60
2022/08/22 07:35:04;;;;;;;23.88;15.55;;;;;;;17.39;84.92;101564.34;5102552;28;20031;-59
2022/08/22 07:38:01;;;;;;;23.98;16.33;;;;;;;17.47;85.05;101561.56;5091119;28;20099;-59
2022/08/22 07:40:52;;;;;;;23.58;16.10;;;;;;;17.57;84.41;101554.00;5102149;28;20135;-61
2022/08/22 07:43:28;;;;;;;25.67;16.50;;;;;;;17.71;84.59;101544.25;5099491;28;20035;-61
2022/08/22 07:46:28;;;;;;;22.30;17.02;;;;;;;17.92;83.93;101544.44;5101486;28;20036;-60
2022/08/22 07:49:00;;;;;;;24.52;17.17;;;;;;;18.05;82.88;101544.53;5103983;27;20035;-61
2022/08/22 07:51:34;;;;;;;26.08;17.20;;;;;;;18.18;82.61;101537.63;5105027;28;20676;-61
2022/08/22 07:54:08;;;;;;;26.35;18.20;;;;;;;18.32;82.77;101552.84;5098069;28;20042;-60
2022/08/22 07:56:39;;;;;;;24.90;15.55;;;;;;;18.42;81.42;101545.22;5102327;28;20024;-60
2022/08/22 07:59:09;;;;;;;22.45;15.07;;;;;;;18.71;81.85;101552.44;5103032;27;20032;-61
2022/08/22 08:01:36;;;;;;;21.98;14.77;;;;;;;18.77;78.81;101551.63;5102563;28;20040;-61
2022/08/22 08:04:09;;;;;;;22.23;14.88;;;;;;;18.93;79.11;101551.31;5101940;28;20040;-59
2022/08/22 08:06:34;;;;;;;;;;;;;;;19.06;80.24;101549.75;5104930;28;20112;-61
2022/08/22 08:09:00;;;;;;;24.83;15.40;;;;;;;19.26;79.19;101543.59;5100265;27;20376;-63
2022/08/22 08:11:31;;;;;;;22.42;14.27;;;;;;;19.26;76.23;101543.59;5102823;28;20066;-61
2022/08/22 08:14:00;;;;;;;23.65;13.40;;;;;;;19.34;76.74;101541.53;5094014;28;20036;-61
2022/08/22 08:16:33;;;;;;;21.48;13.75;;;;;;;19.33;76.92;101525.59;5104321;28;20032;-60
2022/08/22 08:19:01;;;;;;;21.95;15.00;;;;;;;19.39;77.46;101538.25;5095356;27;20032;-61
2022/08/22 08:21:32;;;;;;;20.45;13.63;;;;;;;19.45;76.46;101526.66;5096631;28;20034;-62
2022/08/22 08:24:00;;;;;;;25.02;14.68;;;;;;;19.55;75.58;101534.38;5098987;28;20114;-61
2022/08/22 08:26:34;;;;;;;22.75;13.10;;;;;;;19.69;74.29;101531.69;5094508;28;20480;-61
2022/08/22 08:29:01;;;;;;;24.15;14.00;;;;;;;19.78;72.87;101529.63;5103849;28;20036;-62
2022/08/22 08:31:30;;;;;;;22.77;12.75;;;;;;;19.85;73.49;101535.81;5095755;28;20051;-59
2022/08/22 08:34:14;;;;;;;21.38;13.45;;;;;;;19.97;73.67;101528.81;5103323;28;20031;-61
2022/08/22 08:36:58;;;;;;;20.88;13.15;;;;;;;20.09;73.31;101530.88;5104140;28;20028;-57
2022/08/22 08:39:31;;;;;;;17.63;11.38;;;;;;;20.14;71.52;101523.00;5103981;28;20036;-56
2022/08/22 08:42:09;;;;;;;20.45;12.23;;;;;;;20.25;71.91;101530.47;5101049;28;20044;-56
2022/08/22 08:45:18;;;;;;;19.08;11.57;;;;;;;20.29;71.79;101528.97;5102187;28;20031;-56
2022/08/22 08:47:57;;;;;;;16.65;11.02;;;;;;;20.34;70.29;101528.38;5103714;27;20481;-58
2022/08/22 08:50:55;;;;;;;20.25;10.60;;;;;;;20.33;71.05;101525.88;5102833;28;20035;-57
2022/08/22 08:53:35;;;;;;;20.63;10.52;;;;;;;20.36;71.59;101526.28;5049268;28;20035;-58
2022/08/22 08:56:15;;;;;;;19.17;10.23;;;;;;;20.32;70.09;101513.47;5107947;28;20054;-57
2022/08/22 08:59:31;;;;;;;15.93;9.35;;;;;;;20.39;71.30;101531.22;5091818;27;20029;-58
2022/08/22 09:02:08;;;;;;;16.40;9.88;;;;;;;20.39;70.41;101522.34;5060156;28;20404;-57
2022/08/22 09:05:06;;;;;;;16.95;8.95;;;;;;;20.35;69.71;101518.41;5057351;28;20033;-58
2022/08/22 09:07:47;;;;;;;17.13;8.15;;;;;;;20.33;67.66;101513.22;5098395;27;20040;-61
2022/08/22 09:10:33;;;;;;;15.48;7.40;;;;;;;20.34;66.77;101514.06;5106343;28;20028;-59
2022/08/22 09:13:19;;;;;;;13.88;7.68;;;;;;;20.37;67.14;101517.16;5108271;28;20492;-59
2022/08/22 09:16:21;;;;;;;14.73;7.65;;;;;;;20.40;66.79;101515.91;5108406;28;20029;-57
2022/08/22 09:19:25;;;;;;;15.98;6.93;;;;;;;20.43;66.78;101515.50;5100061;28;20396;-58
2022/08/22 09:22:12;;;;;;;15.18;7.20;;;;;;;20.44;65.50;101506.38;5105409;28;20032;-58
2022/08/22 09:24:56;;;;;;;16.50;7.40;;;;;;;20.46;65.88;101504.28;5095328;28;20497;-57
2022/08/22 09:27:52;;;;;;;15.55;7.78;;;;;;;20.54;66.27;101509.44;5097926;27;20166;-61
2022/08/22 09:30:22;;;;;;;19.40;7.47;;;;;;;20.58;66.04;101514.41;5112683;27;20035;-59
2022/08/22 09:32:59;;;;;;;15.65;7.00;;;;;;;20.62;64.96;101508.38;5096954;28;20082;-60
2022/08/22 09:35:36;;;;;;;13.75;6.90;;;;;;;20.65;65.38;101505.28;5096653;28;20104;-58
2022/08/22 09:38:43;;;;;;;19.95;7.63;;;;;;;20.72;66.41;101510.63;5101411;27;20043;-58
2022/08/22 09:41:38;;;;;;;15.70;7.45;;;;;;;20.75;66.37;101517.44;5099317;28;20474;-60
2022/08/22 09:44:14;;;;;;;14.43;7.07;;;;;;;20.79;65.68;101514.16;5103227;27;20024;-60
2022/08/22 09:47:01;;;;;;;13.90;6.88;;;;;;;20.88;64.83;101513.91;5105572;28;20054;-61
2022/08/22 09:49:44;;;;;;;15.77;6.45;;;;;;;20.88;64.36;101512.06;5108056;27;20449;-60
2022/08/22 09:52:19;;;;;;;16.10;6.00;;;;;;;20.95;64.89;101512.00;5099579;27;20031;-58
2022/08/22 09:55:04;;;;;;;12.50;5.78;;;;;;;21.00;63.11;101509.50;5096545;28;20028;-58
2022/08/22 09:57:43;;;;;;;13.30;6.47;;;;;;;21.05;61.51;101507.00;5099538;27;20426;-61
2022/08/22 10:00:46;;;;;;;14.25;6.00;;;;;;;21.17;61.87;101509.81;5101462;28;20707;-59
2022/08/22 10:03:17;;;;;;;16.40;6.35;;;;;;;21.31;61.30;101504.38;5101237;27;20126;-61
2022/08/22 10:05:46;;;;;;;13.73;5.97;;;;;;;21.45;60.26;101500.53;5102362;27;20703;-61
2022/08/22 10:08:27;;;;;;;14.57;5.38;;;;;;;21.61;61.45;101496.44;5097447;28;20046;-60
2022/08/22 10:11:08;;;;;;;15.80;5.05;;;;;;;21.72;60.17;101486.84;5100477;28;20032;-59
2022/08/22 10:13:54;;;;;;;15.18;5.00;;;;;;;21.83;59.19;101490.72;5103645;28;20035;-58
2022/08/22 10:16:30;;;;;;;11.73;5.40;;;;;;;21.84;58.07;101481.56;5098451;28;20024;-59
2022/08/22 10:19:15;;;;;;;14.07;5.32;;;;;;;21.92;58.29;101476.91;5106313;27;20035;-59
2022/08/22 10:22:03;;;;;;;10.32;4.70;;;;;;;22.03;58.47;101484.28;5097578;28;20039;-58
2022/08/22 10:24:35;;;;;;;15.68;5.60;;;;;;;22.05;55.69;101482.19;5096243;28;20361;-59
2022/08/22 10:27:06;;;;;;;11.13;5.38;;;;;;;22.20;57.63;101483.72;5096888;28;20031;-60
2022/08/22 10:29:56;;;;;;;14.57;4.90;;;;;;;22.19;58.45;101480.19;5097710;27;20473;-59
2022/08/22 10:32:29;;;;;;;15.40;4.85;;;;;;;22.25;55.93;101479.28;5096995;27;20036;-59
2022/08/22 10:35:01;;;;;;;15.32;5.32;;;;;;;22.25;54.77;101478.47;5102870;28;20118;-58
2022/08/22 10:37:47;;;;;;;11.70;4.72;;;;;;;22.33;56.27;101480.88;5083518;27;20478;-60
2022/08/22 10:40:20;;;;;;;12.80;5.22;;;;;;;22.39;52.67;101481.81;5098037;28;20046;-59
2022/08/22 10:42:57;;;;;;;13.55;5.13;;;;;;;22.50;55.39;101472.16;5095682;28;20100;-60
2022/08/22 10:45:51;;;;;;;13.57;4.78;;;;;;;22.61;55.10;101474.13;5102764;28;20164;-60
2022/08/22 10:48:31;;;;;;;11.23;4.70;;;;;;;22.71;53.47;101469.00;5099421;27;20043;-58
2022/08/22 10:51:18;;;;;;;11.18;3.95;;;;;;;22.77;52.99;101466.44;5096285;28;20036;-58
2022/08/22 10:54:06;;;;;;;10.55;4.50;;;;;;;22.80;54.43;101466.00;5099006;28;20055;-58
2022/08/22 10:56:54;;;;;;;12.63;4.85;;;;;;;22.90;54.55;101460.03;5095700;28;20078;-58
2022/08/22 10:59:19;;;;;;;8.48;3.90;;;;;;;22.92;51.71;101463.31;5097021;27;20044;-57
2022/08/22 11:02:00;;;;;;;15.00;4.90;;;;;;;22.88;52.91;101457.56;5103107;28;20051;-58
2022/08/22 11:04:47;;;;;;;11.30;4.20;;;;;;;22.81;53.26;101457.66;5093895;28;20284;-57
2022/08/22 11:07:38;;;;;;;10.45;3.95;;;;;;;22.83;52.33;101457.41;5095334;28;20028;-57
2022/08/22 11:10:13;;;;;;;10.73;4.03;;;;;;;22.68;50.48;101447.84;5098084;28;20032;-59
2022/08/22 11:12:46;;;;;;;9.93;3.40;;;;;;;22.70;51.14;101461.13;5096843;28;20372;-57
2022/08/22 11:15:42;;;;;;;9.80;3.80;;;;;;;22.75;51.97;101463.16;5104673;28;20036;-59
2022/08/22 11:18:19;;;;;;;11.15;3.83;;;;;;;22.80;52.60;101457.88;5083056;28;20099;-57
2022/08/22 11:20:54;;;;;;;10.43;3.75;;;;;;;22.92;51.61;101453.34;5098288;28;20466;-58
2022/08/22 11:23:35;;;;;;;11.35;3.88;;;;;;;23.03;51.32;101459.03;5100637;27;20032;-57
2022/08/22 11:26:21;;;;;;;8.48;3.70;;;;;;;23.07;50.38;101455.63;5093743;28;20023;-58
2022/08/22 11:29:06;;;;;;;11.75;3.90;;;;;;;23.07;52.29;101454.78;5101651;27;20047;-58
2022/08/22 11:31:44;;;;;;;11.63;3.65;;;;;;;23.09;48.32;101455.41;5096163;28;20578;-58
2022/08/22 11:34:30;;;;;;;8.02;3.60;;;;;;;23.08;49.09;101456.44;5083365;28;20110;-58
2022/08/22 11:37:05;;;;;;;11.07;3.70;;;;;;;23.10;50.14;101454.34;5091845;28;20808;-57
2022/08/22 11:39:40;;;;;;;11.95;4.18;;;;;;;23.11;47.40;101450.56;5109949;27;20042;-60
2022/08/22 11:42:18;;;;;;;9.68;3.60;;;;;;;23.06;49.70;101453.16;5097217;28;20078;-57
2022/08/22 11:44:51;;;;;;;11.95;4.05;;;;;;;23.06;48.56;101447.72;5095713;28;20028;-57
2022/08/22 11:47:21;;;;;;;9.88;3.50;;;;;;;23.11;48.41;101442.47;5097595;28;20128;-59
2022/08/22 11:50:08;;;;;;;8.77;3.22;;;;;;;23.16;48.93;101448.00;5100193;28;20027;-60
2022/08/22 11:53:00;;;;;;;10.60;3.35;;;;;;;23.20;49.38;101441.06;5095977;28;20169;-60
2022/08/22 11:55:39;;;;;;;11.75;3.63;;;;;;;23.17;47.64;101432.56;5102665;28;20472;-61
2022/08/22 11:58:39;;;;;;;7.15;3.30;;;;;;;23.21;49.72;101434.63;5094644;28;20677;-60
2022/08/22 12:01:14;;;;;;;8.77;3.53;;;;;;;23.17;48.95;101433.41;5097961;28;20675;-61
2022/08/22 12:03:48;;;;;;;10.02;3.50;;;;;;;23.20;47.87;101438.34;5092672;28;20028;-60
2022/08/22 12:06:27;;;;;;;11.02;3.67;;;;;;;23.21;48.35;101429.19;5099428;28;20115;-60
2022/08/22 12:09:15;;;;;;;11.20;3.58;;;;;;;23.15;51.50;101435.53;5102544;27;20130;-61
2022/08/22 12:12:11;;;;;;;9.63;3.45;;;;;;;23.11;50.60;101445.16;5096215;28;20055;-60
2022/08/22 12:15:19;;;;;;;11.93;3.72;;;;;;;23.06;49.21;101439.63;5095492;28;20054;-61
2022/08/22 12:18:07;;;;;;;9.98;3.50;;;;;;;22.86;50.95;101427.22;5092882;28;20032;-60
2022/08/22 12:21:00;;;;;;;14.07;4.32;;;;;;;22.83;51.02;101443.88;5091217;28;20077;-60